createdAt,value
2023-06-25T05:05:01.504Z,7.82
2023-06-25T05:08:04.678Z,7.63
2023-06-25T05:19:08.407Z,6.65
2023-06-25T05:24:32.437Z,6.03
2023-06-25T05:27:34.904Z,6.50
2023-06-25T05:43:45.837Z,5.75
2023-06-25T05:46:48.356Z,5.63
2023-06-25T05:49:50.825Z,5.70
2023-06-25T05:52:53.968Z,6.07
2023-06-25T05:55:56.413Z,5.75
2023-06-25T05:59:00.433Z,5.18
2023-06-25T06:02:03.516Z,5.35
2023-06-25T06:05:07.248Z,5.28
2023-06-25T06:08:09.672Z,5.10
2023-06-25T06:11:12.390Z,4.85
2023-06-25T06:14:16.183Z,5.35
2023-06-25T06:17:18.636Z,4.85
2023-06-25T06:20:21.088Z,4.05
2023-06-25T06:23:23.541Z,4.70
2023-06-25T06:26:26.176Z,4.57
2023-06-25T06:29:29.979Z,4.28
2023-06-25T06:32:32.518Z,4.20
2023-06-25T06:35:35.113Z,4.88
2023-06-25T06:38:37.971Z,3.95
2023-06-25T06:41:40.470Z,4.20
2023-06-25T06:44:44.280Z,4.28
2023-06-25T06:47:46.883Z,3.70
2023-06-25T06:50:49.893Z,4.30
2023-06-25T06:53:52.509Z,4.75
2023-06-25T06:56:54.989Z,3.53
2023-06-25T06:59:58.967Z,3.67
2023-06-25T07:03:01.639Z,3.67
2023-06-25T07:06:04.172Z,4.38
2023-06-25T07:09:07.179Z,3.80
2023-06-25T07:12:10.012Z,3.90
2023-06-25T07:15:13.808Z,4.10
2023-06-25T07:18:16.289Z,3.30
2023-06-25T07:21:18.996Z,4.03
2023-06-25T07:24:21.589Z,3.78
2023-06-25T07:27:24.073Z,4.40
2023-06-25T07:30:27.826Z,3.15
2023-06-25T07:33:30.310Z,3.83
2023-06-25T07:36:34.169Z,3.65
2023-06-25T07:39:36.729Z,3.60
2023-06-25T07:42:39.160Z,2.90
2023-06-25T07:45:43.368Z,3.25
2023-06-25T07:48:45.998Z,4.45
2023-06-25T07:51:51.364Z,3.67
2023-06-25T07:54:55.022Z,3.75
2023-06-25T07:57:57.826Z,4.03
2023-06-25T08:01:02.249Z,3.67
2023-06-25T08:04:05.626Z,3.78
2023-06-25T08:07:08.621Z,3.90
2023-06-25T08:10:12.246Z,3.60
2023-06-25T08:13:16.470Z,3.92
2023-06-25T08:16:21.318Z,4.15
2023-06-25T08:19:24.512Z,3.40
2023-06-25T08:22:27.819Z,3.53
2023-06-25T08:25:32.359Z,3.22
2023-06-25T08:28:34.826Z,3.53
2023-06-25T08:31:38.958Z,3.20
2023-06-25T08:34:42.197Z,3.40
2023-06-25T08:37:44.674Z,3.92
2023-06-25T08:40:48.253Z,3.80
2023-06-25T08:43:50.787Z,3.67
2023-06-25T08:46:56.716Z,4.13
2023-06-25T08:49:59.370Z,3.60
2023-06-25T08:53:01.908Z,3.75
2023-06-25T08:56:07.109Z,3.88
2023-06-25T08:59:09.609Z,3.58
2023-06-25T09:02:13.552Z,3.95
2023-06-25T09:05:25.711Z,3.42
2023-06-25T09:08:29.948Z,4.10
2023-06-25T09:11:33.167Z,4.25
2023-06-25T09:14:38.698Z,3.92
2023-06-25T09:17:43.470Z,3.83
2023-06-25T09:20:52.866Z,3.63
2023-06-25T09:23:58.094Z,3.90
2023-06-25T09:27:00.629Z,3.88
2023-06-25T09:30:03.443Z,4.20
2023-06-25T09:33:08.033Z,4.22
2023-06-25T09:36:31.124Z,3.60
2023-06-25T09:39:36.258Z,4.05
2023-06-25T09:42:41.227Z,4.03
2023-06-25T09:45:45.947Z,3.70
2023-06-25T09:48:54.108Z,4.10
2023-06-25T09:52:03.852Z,4.25
2023-06-25T09:55:09.676Z,3.88
2023-06-25T09:58:12.262Z,4.18
2023-06-25T10:01:17.452Z,3.75
2023-06-25T10:04:21.568Z,4.22
2023-06-25T10:07:25.879Z,4.55
2023-06-25T10:10:30.622Z,4.20
2023-06-25T10:13:36.493Z,4.63
2023-06-25T10:16:40.410Z,4.18
2023-06-25T10:19:57.736Z,4.55
2023-06-25T10:23:08.164Z,4.40
2023-06-25T10:26:14.903Z,3.78
2023-06-25T10:29:17.378Z,4.18
2023-06-25T10:32:20.925Z,4.25
2023-06-25T10:35:25.015Z,4.38
2023-06-25T10:38:27.498Z,4.95
2023-06-25T10:41:31.617Z,4.90
2023-06-25T10:44:34.999Z,3.95
2023-06-25T10:47:37.534Z,4.60
2023-06-25T10:50:42.419Z,4.18
2023-06-25T10:53:45.076Z,4.20
2023-06-25T10:56:49.476Z,4.60
2023-06-25T10:59:53.324Z,3.97
2023-06-25T11:02:56.896Z,3.78
2023-06-25T11:06:00.889Z,4.10
2023-06-25T11:09:03.943Z,4.47
2023-06-25T11:12:08.149Z,4.05
2023-06-25T11:15:10.642Z,4.00
2023-06-25T11:18:18.823Z,4.60
2023-06-25T11:21:22.647Z,4.32
2023-06-25T11:24:25.302Z,3.85
2023-06-25T11:27:29.662Z,3.95
2023-06-25T11:30:33.711Z,3.72
2023-06-25T11:33:36.356Z,4.05
2023-06-25T11:36:40.790Z,4.05
2023-06-25T11:39:44.839Z,4.43
2023-06-25T11:42:48.029Z,4.07
2023-06-25T11:45:52.156Z,4.18
2023-06-25T11:48:55.017Z,3.70
2023-06-25T11:52:00.073Z,3.97
2023-06-25T11:55:03.405Z,3.45
2023-06-25T11:58:06.077Z,3.63
2023-06-25T12:01:10.223Z,3.92
2023-06-25T12:04:12.766Z,3.85
2023-06-25T12:07:17.152Z,3.70
2023-06-25T12:10:19.848Z,3.85
2023-06-25T12:13:22.461Z,4.10
2023-06-25T12:16:25.018Z,4.53
2023-06-25T12:19:27.502Z,4.18
2023-06-25T12:22:33.399Z,3.65
2023-06-25T12:25:36.950Z,3.60
2023-06-25T12:28:39.945Z,3.88
2023-06-25T12:31:42.647Z,3.45
2023-06-25T12:34:45.420Z,3.80
2023-06-25T12:37:49.627Z,3.88
2023-06-25T12:40:58.085Z,3.90
2023-06-25T12:44:01.695Z,3.88
2023-06-25T12:47:04.784Z,3.42
2023-06-25T12:50:08.477Z,3.92
2023-06-25T12:53:13.280Z,3.53
2023-06-25T12:56:16.389Z,3.45
2023-06-25T12:59:19.558Z,3.58
2023-06-25T13:02:22.254Z,4.32
2023-06-25T13:05:26.821Z,3.97
2023-06-25T13:08:30.940Z,3.67
2023-06-25T13:11:35.624Z,3.38
2023-06-25T13:14:38.560Z,3.42
2023-06-25T13:17:45.702Z,4.07
2023-06-25T13:20:49.068Z,4.30
2023-06-25T13:23:53.936Z,3.85
2023-06-25T13:26:59.710Z,4.03
2023-06-25T13:30:02.909Z,3.63
2023-06-25T13:33:06.515Z,3.47
2023-06-25T13:36:09.921Z,3.65
2023-06-25T13:39:15.399Z,3.47
2023-06-25T13:42:19.233Z,3.78
2023-06-25T13:45:23.528Z,3.38
2023-06-25T13:48:26.655Z,3.72
2023-06-25T13:51:29.948Z,3.72
2023-06-25T13:54:34.522Z,3.90
2023-06-25T13:57:37.947Z,3.70
2023-06-25T14:00:41.014Z,4.35
2023-06-25T14:03:45.033Z,3.88
2023-06-25T14:06:48.411Z,4.00
2023-06-25T14:09:55.914Z,3.40
2023-06-25T14:13:03.097Z,4.07
2023-06-25T14:16:15.544Z,3.97
2023-06-25T14:19:19.408Z,4.50
2023-06-25T14:22:22.956Z,3.67
2023-06-25T14:25:30.562Z,4.15
2023-06-25T14:28:34.162Z,3.88
2023-06-25T14:31:37.462Z,3.55
2023-06-25T14:34:40.711Z,3.60
2023-06-25T14:37:44.243Z,3.97
2023-06-25T14:40:48.724Z,3.55
2023-06-25T14:43:52.021Z,4.43
2023-06-25T14:46:55.165Z,3.88
2023-06-25T14:49:58.310Z,3.78
2023-06-25T14:53:01.659Z,4.20
2023-06-25T14:56:06.766Z,4.13
2023-06-25T14:59:09.939Z,3.85
2023-06-25T15:02:13.366Z,4.22
2023-06-25T15:05:16.483Z,4.55
2023-06-25T15:08:19.646Z,4.30
2023-06-25T15:11:27.751Z,3.95
2023-06-25T15:14:30.817Z,4.13
2023-06-25T15:17:34.298Z,3.78
2023-06-25T15:20:37.833Z,4.00
2023-06-25T15:23:40.984Z,4.15
2023-06-25T15:26:45.829Z,3.92
2023-06-25T15:29:48.980Z,4.00
2023-06-25T15:32:52.242Z,4.07
2023-06-25T15:35:55.929Z,4.32
2023-06-25T15:38:59.369Z,4.57
2023-06-25T15:42:04.806Z,4.40
2023-06-25T15:45:11.977Z,4.20
2023-06-25T15:48:15.571Z,4.28
2023-06-25T15:51:18.907Z,4.40
2023-06-25T15:54:26.260Z,3.97
2023-06-25T15:57:31.264Z,4.28
2023-06-25T16:00:36.488Z,4.25
2023-06-25T16:03:40.167Z,4.25
2023-06-25T16:06:43.521Z,4.30
2023-06-25T16:09:46.742Z,4.18
2023-06-25T16:12:51.626Z,3.92
2023-06-25T16:15:56.421Z,4.55
2023-06-25T16:19:22.116Z,4.38
2023-06-25T16:22:22.972Z,4.43
2023-06-25T16:25:26.556Z,4.53
2023-06-25T16:28:33.251Z,4.15
2023-06-25T16:31:36.371Z,4.97
2023-06-25T16:34:40.791Z,4.68
2023-06-25T16:37:43.978Z,5.30
2023-06-25T16:40:47.092Z,4.82
2023-06-25T16:43:52.169Z,4.90
2023-06-25T16:46:56.674Z,4.70
2023-06-25T16:50:00.194Z,4.65
2023-06-25T16:53:04.534Z,4.35
2023-06-25T16:56:07.754Z,4.50
2023-06-25T16:59:13.686Z,5.07
2023-06-25T17:02:16.988Z,4.18
2023-06-25T17:05:20.462Z,5.18
2023-06-25T17:08:25.043Z,4.47
2023-06-25T17:11:28.783Z,4.63
2023-06-25T17:14:33.601Z,4.65
2023-06-25T17:17:36.967Z,5.03
2023-06-25T17:20:40.116Z,4.60
2023-06-25T17:23:45.647Z,4.88
2023-06-25T17:26:49.087Z,5.05
2023-06-25T17:29:54.052Z,4.65
2023-06-25T17:32:56.862Z,5.40
2023-06-25T17:35:59.466Z,5.00
2023-06-25T17:39:02.066Z,5.38
2023-06-25T17:42:05.060Z,5.03
2023-06-25T17:45:09.610Z,4.70
2023-06-25T17:48:12.147Z,4.95
2023-06-25T17:51:15.068Z,4.85
2023-06-25T17:54:18.272Z,5.07
2023-06-25T17:57:20.783Z,4.65
2023-06-25T18:00:24.633Z,4.80
2023-06-25T18:03:28.315Z,4.57
2023-06-25T18:06:31.468Z,4.35
2023-06-25T18:09:34.122Z,4.97
2023-06-25T18:12:39.576Z,4.65
2023-06-25T18:15:43.456Z,4.80
2023-06-25T18:18:47.230Z,4.35
2023-06-25T18:21:49.741Z,4.50
2023-06-25T18:24:52.349Z,4.97
2023-06-25T18:27:55.121Z,4.50
2023-06-25T18:31:00.639Z,4.60
2023-06-25T18:34:03.379Z,4.70
2023-06-25T18:37:06.125Z,4.53
2023-06-25T18:40:09.888Z,4.57
2023-06-25T18:43:12.420Z,5.22
2023-06-25T18:46:16.265Z,4.15
2023-06-25T18:49:19.884Z,3.92
2023-06-25T18:52:22.462Z,4.15
2023-06-25T18:55:25.046Z,4.60
2023-06-25T18:58:27.584Z,4.57
2023-06-25T19:01:34.040Z,5.40
2023-06-25T19:04:38.027Z,4.57
2023-06-25T19:07:40.707Z,4.85
2023-06-25T19:10:44.789Z,5.43
2023-06-25T19:13:47.298Z,5.85
2023-06-25T19:16:51.884Z,5.35
2023-06-25T19:19:54.464Z,5.63
2023-06-25T19:23:23.641Z,5.65
2023-06-25T19:26:19.616Z,5.65
2023-06-25T19:29:22.254Z,5.88
2023-06-25T19:32:26.285Z,5.60
2023-06-25T19:35:28.794Z,6.68
2023-06-25T19:38:31.736Z,6.60
2023-06-25T19:41:34.339Z,5.82
2023-06-25T19:44:36.862Z,5.57
2023-06-25T19:47:40.806Z,6.40
2023-06-25T19:50:43.435Z,5.90
2023-06-25T19:53:46.012Z,6.32
2023-06-25T19:56:48.598Z,6.47
2023-06-25T19:59:51.165Z,6.38
2023-06-25T20:02:55.101Z,7.07
2023-06-25T20:05:57.724Z,6.88
2023-06-25T20:09:00.277Z,8.00
2023-06-25T20:12:03.334Z,7.82
2023-06-25T20:15:06.495Z,7.32
2023-06-25T20:18:10.320Z,6.93
2023-06-25T20:21:12.971Z,6.38
2023-06-25T20:24:15.538Z,6.68
